Denver, Colorado
Current Conditions -  °F | °C
As of 7:58 AM on Monday 22 Dec 2014 (Local Time) from KBKF Reporting Station
Broken Clouds Broken Clouds  
Wind Chill: 21°   Ceiling: 22000
Heat Index: 29°   Visibility: 10mi
Dew Point: 26°   Wind: 8mph
Humidity: 90%   Direction: 190°S
Pressure: 29.74"   Gusts: NA
Location:  39.74°N, 104.99°W
Report Text: KBKF 221458Z 19007KT 10SM FEW070 SCT120 BKN220 M02/M03 A2974 RMK AO2A SLP063 T10181032 58002
Loading
Personal Weather Stations






























Interactive Weather Map New forecast layout! Learn more

10-Day Weather Forecast

Advertisements
Track Severe Weather on mobile